| time (UTC) | temp C | wind direction | speed KPH | gust KPH | rain 1hr cm | rain 24hr cm | rain mn cm | humidity % | barometer mb |
| 20260906204557 | 34 | 120 | 22.5 | 38.6 | 0.00 | 0.00 | 0.00 | 34 | 1011.5 |
| 20260906203055 | 33 | 141 | 27.4 | 41.8 | 0.00 | 0.00 | 0.00 | 34 | 1011.7 |
| 20260906201555 | 33 | 134 | 29.0 | 43.5 | 0.00 | 0.00 | 0.00 | 34 | 1011.9 |
| 20260906200050 | 33 | 108 | 35.4 | 48.3 | 0.00 | 0.00 | 0.00 | 34 | 1011.9 |
| 20260906194602 | 33 | 121 | 33.8 | 46.7 | 0.00 | 0.00 | 0.00 | 34 | 1012.1 |
| 20260906193057 | 32 | 123 | 32.2 | 43.5 | 0.00 | 0.00 | 0.00 | 35 | 1012.4 |
| 20260906191554 | 32 | 128 | 24.1 | 40.2 | 0.00 | 0.00 | 0.00 | 35 | 1012.6 |
| 20260906190054 | 32 | 133 | 19.3 | 38.6 | 0.00 | 0.00 | 0.00 | 34 | 1012.9 |
| 20260906184549 | 32 | 148 | 22.5 | 40.2 | 0.00 | 0.00 | 0.00 | 34 | 1012.9 |
| 20260906183109 | 32 | 105 | 19.3 | 29.0 | 0.00 | 0.00 | 0.00 | 35 | 1013.2 |
| 20260906181602 | 32 | 150 | 20.9 | 33.8 | 0.00 | 0.00 | 0.00 | 36 | 1013.6 |
| 20260906180114 | 31 | 135 | 20.9 | 33.8 | 0.00 | 0.00 | 0.00 | 36 | 1013.9 |
| 20260906174617 | 31 | 148 | 17.7 | 33.8 | 0.00 | 0.00 | 0.00 | 36 | 1014.1 |
| 20260906173057 | 31 | 190 | 17.7 | 33.8 | 0.00 | 0.00 | 0.00 | 36 | 1014.3 |
| 20260906171611 | 31 | 159 | 24.1 | 38.6 | 0.00 | 0.00 | 0.00 | 37 | 1014.7 |
| 20260906170105 | 31 | 152 | 17.7 | 30.6 | 0.00 | 0.00 | 0.00 | 36 | 1014.6 |
| 20260906164557 | 31 | 198 | 14.5 | 30.6 | 0.00 | 0.00 | 0.00 | 37 | 1014.7 |
| 20260906163058 | 30 | 169 | 19.3 | 33.8 | 0.00 | 0.00 | 0.00 | 38 | 1015.0 |
| 20260906161621 | 30 | 203 | 16.1 | 30.6 | 0.00 | 0.00 | 0.00 | 39 | 1015.1 |
| 20260906160052 | 30 | 195 | 17.7 | 27.4 | 0.00 | 0.00 | 0.00 | 39 | 1015.1 |
| 20260906154604 | 29 | 162 | 16.1 | 27.4 | 0.00 | 0.00 | 0.00 | 41 | 1015.0 |
| 20260906153111 | 28 | 181 | 11.3 | 19.3 | 0.00 | 0.00 | 0.00 | 46 | 1015.1 |
| 20260906151552 | 27 | 197 | 8.0 | 16.1 | 0.00 | 0.00 | 0.00 | 52 | 1015.2 |
| 20260906150054 | 27 | 167 | 9.7 | 16.1 | 0.00 | 0.00 | 0.00 | 55 | 1015.4 |
| 20260906144549 | 26 | 198 | 9.7 | 16.1 | 0.00 | 0.00 | 0.00 | 57 | 1015.4 |
| 20260906143053 | 25 | 196 | 6.4 | 11.3 | 0.00 | 0.00 | 0.00 | 61 | 1015.6 |
| 20260906141619 | 23 | 144 | 4.8 | 9.7 | 0.00 | 0.00 | 0.00 | 69 | 1015.3 |
| 20260906140054 | 21 | 224 | 3.2 | 6.4 | 0.00 | 0.00 | 0.00 | 76 | 1015.3 |
| 20260906134549 | 19 | 0 | 0.0 | 3.2 | 0.00 | 0.00 | 0.00 | 83 | 1015.3 |
| 20260906133109 | 18 | 254 | 3.2 | 4.8 | 0.00 | 0.00 | 0.00 | 82 | 1015.2 |
| 20260906131607 | 18 | 0 | 0.0 | 4.8 | 0.00 | 0.00 | 0.00 | 84 | 1015.3 |
| 20260906130059 | 17 | 200 | 0.0 | 4.8 | 0.00 | 0.00 | 0.00 | 89 | 1015.2 |
| 20260906124601 | 16 | 253 | 3.2 | 6.4 | 0.00 | 0.00 | 0.00 | 88 | 1014.9 |
| 20260906123050 | 17 | 259 | 4.8 | 11.3 | 0.00 | 0.00 | 0.00 | 83 | 1014.7 |
| 20260906121607 | 16 | 240 | 4.8 | 8.0 | 0.00 | 0.00 | 0.00 | 88 | 1014.7 |
| 20260906120104 | 17 | 217 | 3.2 | 6.4 | 0.00 | 0.00 | 0.00 | 87 | 1014.6 |
| 20260906114552 | 17 | 269 | 6.4 | 9.7 | 0.00 | 0.00 | 0.00 | 85 | 1014.5 |
| 20260906113047 | 16 | 278 | 1.6 | 9.7 | 0.00 | 0.00 | 0.00 | 88 | 1014.5 |
| 20260906111553 | 17 | 277 | 3.2 | 9.7 | 0.00 | 0.00 | 0.00 | 86 | 1014.6 |
| 20260906110057 | 16 | 268 | 4.8 | 6.4 | 0.00 | 0.00 | 0.00 | 87 | 1014.6 |
| 20260906104552 | 17 | 274 | 3.2 | 6.4 | 0.00 | 0.00 | 0.00 | 84 | 1014.4 |
| 20260906103057 | 17 | 259 | 1.6 | 6.4 | 0.00 | 0.00 | 0.00 | 83 | 1014.4 |
| 20260906101607 | 17 | 269 | 6.4 | 11.3 | 0.00 | 0.00 | 0.00 | 84 | 1014.2 |
| 20260906100058 | 18 | 284 | 6.4 | 11.3 | 0.00 | 0.00 | 0.00 | 82 | 1014.1 |
| 20260906094559 | 18 | 277 | 6.4 | 11.3 | 0.00 | 0.00 | 0.00 | 83 | 1014.1 |
| 20260906093051 | 19 | 266 | 11.3 | 14.5 | 0.00 | 0.00 | 0.00 | 80 | 1014.0 |
| 20260906091556 | 19 | 0 | 1.6 | 3.2 | 0.00 | 0.00 | 0.00 | 81 | 1014.1 |
| 20260906090058 | 19 | 259 | 3.2 | 6.4 | 0.00 | 0.00 | 0.00 | 81 | 1014.2 |
| 20260906084601 | 20 | 0 | 0.0 | 4.8 | 0.00 | 0.00 | 0.00 | 80 | 1014.1 |
| 20260906083103 | 20 | 202 | 4.8 | 8.0 | 0.00 | 0.00 | 0.00 | 80 | 1014.1 |
| 20260906081548 | 20 | 219 | 4.8 | 8.0 | 0.00 | 0.00 | 0.00 | 80 | 1014.0 |
| 20260906080058 | 20 | 0 | 0.0 | 3.2 | 0.00 | 0.00 | 0.00 | 80 | 1013.9 |
| 20260906074557 | 21 | 0 | 1.6 | 6.4 | 0.00 | 0.00 | 0.00 | 78 | 1013.8 |
| 20260906073049 | 21 | 188 | 1.6 | 4.8 | 0.00 | 0.00 | 0.00 | 75 | 1013.9 |
| 20260906071557 | 22 | 0 | 1.6 | 11.3 | 0.00 | 0.00 | 0.00 | 73 | 1013.8 |
| 20260906070059 | 22 | 269 | 6.4 | 11.3 | 0.00 | 0.00 | 0.00 | 73 | 1013.8 |
| 20260906064556 | 22 | 292 | 11.3 | 14.5 | 0.00 | 0.00 | 0.00 | 70 | 1013.7 |
| 20260906063052 | 22 | 290 | 4.8 | 9.7 | 0.00 | 0.00 | 0.00 | 72 | 1013.7 |
| 20260906061602 | 22 | 264 | 1.6 | 9.7 | 0.00 | 0.00 | 0.00 | 70 | 1013.7 |
| 20260906060133 | 23 | 282 | 4.8 | 9.7 | 0.00 | 0.00 | 0.00 | 69 | 1013.5 |
| 20260906054608 | 22 | 288 | 4.8 | 14.5 | 0.00 | 0.00 | 0.00 | 70 | 1013.6 |
| 20260906053050 | 22 | 279 | 9.7 | 12.9 | 0.00 | 0.00 | 0.00 | 73 | 1013.7 |
| 20260906051558 | 22 | 209 | 1.6 | 4.8 | 0.00 | 0.00 | 0.00 | 74 | 1013.9 |
| 20260906050054 | 22 | 174 | 4.8 | 8.0 | 0.00 | 0.00 | 0.00 | 71 | 1013.7 |
| 20260906044555 | 23 | 246 | 1.6 | 3.2 | 0.00 | 0.00 | 0.00 | 69 | 1013.3 |
| 20260906043051 | 24 | 254 | 1.6 | 6.4 | 0.00 | 0.00 | 0.00 | 65 | 1013.6 |
| 20260906041559 | 25 | 279 | 6.4 | 11.3 | 0.00 | 0.00 | 0.00 | 62 | 1013.6 |
| 20260906040059 | 25 | 266 | 6.4 | 12.9 | 0.00 | 0.00 | 0.00 | 62 | 1013.7 |
| 20260906034602 | 25 | 286 | 8.0 | 11.3 | 0.00 | 0.00 | 0.00 | 60 | 1013.7 |
| 20260906033047 | 26 | 229 | 1.6 | 6.4 | 0.00 | 0.00 | 0.00 | 59 | 1013.6 |
| 20260906031556 | 26 | 243 | 4.8 | 9.7 | 0.00 | 0.00 | 0.00 | 58 | 1013.4 |
| 20260906030057 | 27 | 204 | 6.4 | 12.9 | 0.00 | 0.00 | 0.00 | 55 | 1013.4 |
| 20260906024554 | 27 | 148 | 8.0 | 14.5 | 0.00 | 0.00 | 0.00 | 54 | 1013.3 |
| 20260906023058 | 28 | 157 | 8.0 | 16.1 | 0.00 | 0.00 | 0.00 | 53 | 1013.0 |
| 20260906021601 | 27 | 162 | 12.9 | 19.3 | 0.00 | 0.00 | 0.00 | 53 | 1012.7 |
| 20260906020055 | 28 | 238 | 4.8 | 11.3 | 0.00 | 0.00 | 0.00 | 49 | 1012.1 |
| 20260906014552 | 28 | 258 | 3.2 | 9.7 | 0.00 | 0.00 | 0.00 | 46 | 1011.8 |
| 20260906013048 | 28 | 196 | 9.7 | 12.9 | 0.00 | 0.00 | 0.00 | 46 | 1011.8 |
| 20260906011557 | 27 | 327 | 3.2 | 6.4 | 0.00 | 0.00 | 0.00 | 52 | 1011.6 |
| 20260906010136 | 28 | 135 | 0.0 | 4.8 | 0.00 | 0.00 | 0.00 | 55 | 1011.6 |
| 20260906004556 | 28 | 309 | 4.8 | 12.9 | 0.00 | 0.00 | 0.00 | 49 | 1012.1 |
| 20260906003055 | 29 | 299 | 6.4 | 12.9 | 0.00 | 0.00 | 0.00 | 47 | 1012.8 |
| 20260906001603 | 28 | 277 | 8.0 | 11.3 | 0.00 | 0.00 | 0.00 | 48 | 1012.8 |
| 20260906000052 | 29 | 257 | 4.8 | 8.0 | 0.00 | 0.00 | 0.00 | 48 | 1012.2 |
| 20260905234548 | 29 | 34 | 4.8 | 14.5 | 0.00 | 0.00 | 0.00 | 51 | 1011.9 |
| 20260905233058 | 30 | 111 | 9.7 | 16.1 | 0.00 | 0.00 | 0.00 | 48 | 1011.8 |
| 20260905231556 | 30 | 81 | 9.7 | 12.9 | 0.00 | 0.00 | 0.00 | 44 | 1011.7 |
| 20260905230048 | 30 | 339 | 11.3 | 17.7 | 0.00 | 0.00 | 0.00 | 47 | 1012.4 |
| 20260905224555 | 29 | 317 | 8.0 | 22.5 | 0.00 | 0.00 | 0.00 | 49 | 1012.5 |
| 20260905223056 | 30 | 263 | 11.3 | 16.1 | 0.00 | 0.00 | 0.00 | 49 | 1012.4 |
| 20260905221559 | 30 | 281 | 4.8 | 6.4 | 0.00 | 0.00 | 0.00 | 49 | 1011.9 |
| 20260905220100 | 30 | 0 | 0.0 | 3.2 | 0.00 | 0.00 | 0.00 | 50 | 1012.2 |
| 20260905214554 | 30 | 0 | 0.0 | 9.7 | 0.00 | 0.00 | 0.00 | 49 | 1012.1 |
| 20260905213053 | 29 | 100 | 9.7 | 12.9 | 0.00 | 0.00 | 0.00 | 54 | 1012.1 |
| 20260905211547 | 28 | 205 | 4.8 | 17.7 | 0.00 | 0.00 | 0.00 | 56 | 1012.5 |
| 20260905210116 | 28 | 90 | 9.7 | 14.5 | 0.00 | 0.00 | 0.00 | 60 | 1012.3 |